Pagrindinis puslapis
METAR-TAF:

METAR-TAF

Oro uostai :

Čaitenas, Čilė

platuma: 42-55-58S, ilguma: 072-41-58W, Aukštis: 4 m

Dabartinis oras

Ataskaita buvo paskelbta 11 minutes, ne 18:00 UTC
Vėjas 9 kt iš Šiaurės Vakarų, svyruoja nuo Vakarų/Šiaurės Vakarų ir Šiaurės
Temperatūra 10°C
Drėgmė 76%
Slėgis 1013 hPa
Matomumas 10 km arba daugiau
Su prošvaistėmis ne aukštis 3500 ft

METAR: SCTN 221800Z 32009KT 300V010 9999 BKN035 10/06 Q1013

Laikas: 14:11 (18:11 UTC)


TAF: trūkstamas

Orai ataskaitas ir orų prognozės (METAR, TAF).

turimą stotys yra geltonos ir raudonos taškus žemėlapyje.

Perkelti pele per norėdami pamatyti stoties vardą.

Tada spustelėkite, norėdami matyti oro stebėjimo ir prognozės.

Norėdami pakeisti žemėlapį: spustelėkite ant žalios mygtukų su juodo kryžiaus žemyn,; žalią mygtuką su brūkšneliu, jei norite nutolinti; arba žalių rodyklių gretimoms žemėlapius.


METAR-TAF: